Time;durP1;ratioP1;P1;durP2;ratioP2;P2;SDS_P1;SDS_P2;PMS_P1;PMS_P2;Temp;Humidity;BMP_temperature;BMP_pressure;BME280_temperature;BME280_humidity;BME280_pressure;Samples;Min_cycle;Max_cycle;Signal;HPM_P1;HPM_P2
2023/12/28 00:02:07;;;;;;;4.53;1.80;;;9.60;99.90;;;;;;5146880;27;20126;-78
2023/12/28 00:04:34;;;;;;;5.18;2.13;;;9.70;99.90;;;;;;5147167;27;20147;-79
2023/12/28 00:07:02;;;;;;;4.00;2.13;;;9.60;99.90;;;;;;5145600;27;20039;-78
2023/12/28 00:09:27;;;;;;;7.78;2.33;;;9.70;99.90;;;;;;5095621;28;20551;-78
2023/12/28 00:11:53;;;;;;;3.80;2.00;;;9.70;99.90;;;;;;5113016;28;20073;-78
2023/12/28 00:14:18;;;;;;;4.65;1.92;;;9.70;99.90;;;;;;5128089;27;20040;-79
2023/12/28 00:16:44;;;;;;;4.10;1.80;;;9.70;99.90;;;;;;5151687;27;20031;-78
2023/12/28 00:19:10;;;;;;;4.13;1.80;;;9.80;99.90;;;;;;5129334;27;20031;-78
2023/12/28 00:21:35;;;;;;;4.40;2.30;;;9.70;99.90;;;;;;5129196;27;20059;-78
2023/12/28 00:24:01;;;;;;;4.40;1.77;;;9.70;99.90;;;;;;5128998;27;20040;-78
2023/12/28 00:26:27;;;;;;;4.57;2.30;;;9.80;99.90;;;;;;5110750;27;20510;-78
2023/12/28 00:28:52;;;;;;;5.97;2.30;;;9.80;99.90;;;;;;5094553;28;20040;-78
2023/12/28 00:31:18;;;;;;;5.38;2.50;;;9.80;99.90;;;;;;5111057;28;20502;-78
2023/12/28 00:33:44;;;;;;;6.00;2.83;;;9.80;99.90;;;;;;5095824;28;20537;-78
2023/12/28 00:36:09;;;;;;;5.03;1.90;;;9.80;99.90;;;;;;5128131;27;20063;-78
2023/12/28 00:38:35;;;;;;;7.28;2.33;;;9.80;99.90;;;;;;5146775;27;20085;-78
2023/12/28 00:41:01;;;;;;;7.25;2.85;;;9.90;99.90;;;;;;5093912;28;20035;-79
2023/12/28 00:43:26;;;;;;;4.70;2.40;;;9.90;99.90;;;;;;5112956;28;20046;-78
2023/12/28 00:45:52;;;;;;;5.90;2.65;;;9.90;99.90;;;;;;5111799;28;20042;-79
2023/12/28 00:48:17;;;;;;;5.20;2.45;;;9.90;99.90;;;;;;5111742;28;20071;-79
2023/12/28 00:50:43;;;;;;;3.20;1.88;;;9.90;99.90;;;;;;5158486;27;20376;-79
2023/12/28 00:53:09;;;;;;;6.10;2.60;;;9.90;99.90;;;;;;5128158;27;20057;-79
2023/12/28 00:55:34;;;;;;;5.70;2.30;;;9.90;99.90;;;;;;5095511;28;20123;-79
2023/12/28 00:58:00;;;;;;;6.60;2.83;;;9.90;99.90;;;;;;5120347;27;20408;-79
2023/12/28 01:00:26;;;;;;;7.65;2.53;;;9.90;99.90;;;;;;5129884;27;20040;-79
2023/12/28 01:02:51;;;;;;;5.93;2.45;;;9.90;99.90;;;;;;5145051;27;20035;-79
2023/12/28 01:05:17;;;;;;;4.53;1.92;;;9.90;99.90;;;;;;5095554;28;20051;-79
2023/12/28 01:07:43;;;;;;;3.65;1.67;;;9.90;99.90;;;;;;5110311;28;20040;-79
2023/12/28 01:10:08;;;;;;;4.07;1.25;;;9.90;99.90;;;;;;5112134;28;20036;-79
2023/12/28 01:12:34;;;;;;;3.70;1.85;;;9.90;99.90;;;;;;5110070;28;20028;-79
2023/12/28 01:15:00;;;;;;;3.75;1.58;;;9.90;99.90;;;;;;5112367;28;20072;-79
2023/12/28 01:17:25;;;;;;;4.90;2.58;;;9.90;99.90;;;;;;5095055;28;20482;-78
2023/12/28 01:19:51;;;;;;;5.45;2.20;;;9.80;99.90;;;;;;5112339;28;20483;-79
2023/12/28 01:22:16;;;;;;;4.90;1.73;;;9.80;99.90;;;;;;5127582;27;20035;-79
2023/12/28 01:24:45;;;;;;;5.00;1.92;;;9.70;99.90;;;;;;5146730;27;20077;-79
2023/12/28 01:27:11;;;;;;;4.63;2.05;;;9.90;99.90;;;;;;5128566;28;20039;-79
2023/12/28 01:29:36;;;;;;;5.03;2.25;;;9.80;99.90;;;;;;5111177;28;20036;-79
2023/12/28 01:32:04;;;;;;;5.63;2.47;;;9.90;99.90;;;;;;5110777;28;20034;-80
2023/12/28 01:34:29;;;;;;;3.60;1.60;;;9.90;99.90;;;;;;5111469;28;20032;-79
2023/12/28 01:36:55;;;;;;;4.57;1.77;;;9.80;99.90;;;;;;5095209;28;20036;-79
2023/12/28 01:39:20;;;;;;;6.28;1.75;;;9.90;99.90;;;;;;5112232;28;20047;-79
2023/12/28 01:41:46;;;;;;;6.22;2.58;;;9.80;99.90;;;;;;5133196;27;20403;-79
2023/12/28 01:44:12;;;;;;;4.70;1.70;;;9.80;99.90;;;;;;5149065;27;20434;-80
2023/12/28 01:46:37;;;;;;;4.97;1.92;;;9.80;99.90;;;;;;5133455;27;20036;-80
2023/12/28 01:49:04;;;;;;;4.72;2.17;;;9.80;99.90;;;;;;5131975;27;20032;-80
2023/12/28 01:51:30;;;;;;;5.75;1.38;;;9.80;99.90;;;;;;5116185;27;20527;-80
2023/12/28 01:53:56;;;;;;;4.45;1.58;;;9.70;99.90;;;;;;5149004;27;20031;-79
2023/12/28 01:56:23;;;;;;;7.57;2.08;;;9.70;99.90;;;;;;5150521;27;20063;-79
2023/12/28 01:58:52;;;;;;;7.15;2.45;;;9.70;99.90;;;;;;5132173;27;20083;-79
2023/12/28 02:01:18;;;;;;;8.40;2.83;;;9.70;99.90;;;;;;5117044;27;20039;-79
2023/12/28 02:03:44;;;;;;;7.15;2.50;;;9.70;99.90;;;;;;5131891;27;20161;-79
2023/12/28 02:06:10;;;;;;;4.13;1.60;;;9.80;99.90;;;;;;5132748;27;20044;-79
2023/12/28 02:08:35;;;;;;;7.07;1.58;;;9.80;99.90;;;;;;5131580;27;20061;-79
2023/12/28 02:11:01;;;;;;;3.50;1.90;;;9.80;99.90;;;;;;5114390;28;20040;-80
2023/12/28 02:13:27;;;;;;;7.75;2.00;;;9.80;99.90;;;;;;5132640;27;20027;-79
2023/12/28 02:15:59;;;;;;;4.50;1.73;;;9.80;99.90;;;;;;5109757;28;20031;-79
2023/12/28 02:18:30;;;;;;;4.18;2.05;;;9.90;99.90;;;;;;5096975;27;20036;-79
2023/12/28 02:20:57;;;;;;;4.05;1.67;;;9.90;99.90;;;;;;5130257;27;20118;-79
2023/12/28 02:23:23;;;;;;;9.40;2.30;;;9.90;99.90;;;;;;5148675;27;20138;-79
2023/12/28 02:25:49;;;;;;;4.40;1.70;;;9.90;99.90;;;;;;5148715;27;20551;-79
2023/12/28 02:28:15;;;;;;;2.75;1.33;;;9.90;99.90;;;;;;5098236;28;20404;-79
2023/12/28 02:30:40;;;;;;;6.85;2.00;;;9.90;99.90;;;;;;5136707;27;20058;-79
2023/12/28 02:33:27;;;;;;;6.53;1.45;;;9.90;99.90;;;;;;5119740;27;20055;-79
2023/12/28 02:35:57;;;;;;;3.88;1.73;;;9.90;99.90;;;;;;5136960;27;20035;-79
2023/12/28 02:38:25;;;;;;;6.80;2.08;;;10.00;99.90;;;;;;5106696;27;20038;-79
2023/12/28 02:40:52;;;;;;;6.38;1.88;;;10.00;99.90;;;;;;5096625;27;20046;-80
2023/12/28 02:43:17;;;;;;;4.28;1.65;;;10.00;99.90;;;;;;5126108;27;20035;-79
2023/12/28 02:45:43;;;;;;;6.82;1.88;;;10.00;99.90;;;;;;5135142;27;20035;-80
2023/12/28 02:48:08;;;;;;;4.65;1.90;;;10.00;99.90;;;;;;5133573;27;20239;-79
2023/12/28 02:50:35;;;;;;;5.63;1.88;;;10.10;99.90;;;;;;5090103;27;20036;-78
2023/12/28 02:53:01;;;;;;;3.95;1.70;;;10.20;99.90;;;;;;5112089;27;20047;-80
2023/12/28 02:55:27;;;;;;;5.43;2.10;;;10.10;99.90;;;;;;5122651;27;20541;-79
2023/12/28 02:57:59;;;;;;;10.60;2.53;;;10.10;99.90;;;;;;5078194;27;20032;-80
2023/12/28 03:00:25;;;;;;;7.05;1.88;;;10.20;99.90;;;;;;5106426;27;22261;-79
2023/12/28 03:02:51;;;;;;;5.32;1.45;;;10.30;99.90;;;;;;5092134;27;20142;-79
2023/12/28 03:05:17;;;;;;;8.20;1.67;;;10.20;99.90;;;;;;5114484;27;20035;-79
2023/12/28 03:07:43;;;;;;;11.85;1.58;;;10.30;99.90;;;;;;5122757;27;20610;-79
2023/12/28 03:10:11;;;;;;;8.00;1.88;;;10.30;99.90;;;;;;5077538;27;20499;-79
2023/12/28 03:12:37;;;;;;;9.60;2.42;;;10.40;99.90;;;;;;5113317;27;21129;-79
2023/12/28 03:15:03;;;;;;;10.23;2.40;;;10.40;99.90;;;;;;5117363;27;20472;-78
2023/12/28 03:17:30;;;;;;;3.28;1.15;;;10.50;99.90;;;;;;5116742;27;20170;-79
2023/12/28 03:19:56;;;;;;;5.88;2.22;;;10.50;99.90;;;;;;5072664;27;20035;-79
2023/12/28 03:22:22;;;;;;;7.30;1.80;;;10.60;99.90;;;;;;5126507;27;20043;-79
2023/12/28 03:24:48;;;;;;;9.45;2.13;;;10.50;99.90;;;;;;5090939;27;20066;-80
2023/12/28 03:27:14;;;;;;;6.35;1.77;;;10.60;99.90;;;;;;5122281;27;20035;-80
2023/12/28 03:29:42;;;;;;;12.50;1.67;;;10.60;99.90;;;;;;5076554;28;21557;-78
2023/12/28 03:32:08;;;;;;;5.50;2.38;;;10.60;99.90;;;;;;5111698;27;20085;-79
2023/12/28 03:34:34;;;;;;;11.60;1.83;;;10.60;99.90;;;;;;5108776;27;20476;-79
2023/12/28 03:37:00;;;;;;;8.63;2.13;;;10.60;99.90;;;;;;5132014;27;20043;-80
2023/12/28 03:39:25;;;;;;;5.47;1.35;;;10.60;99.90;;;;;;5082635;27;20035;-79
2023/12/28 03:41:52;;;;;;;3.72;1.02;;;10.70;99.90;;;;;;5137667;27;20036;-79
2023/12/28 03:44:20;;;;;;;5.45;1.73;;;10.60;99.90;;;;;;5089195;27;20040;-79
2023/12/28 03:46:47;;;;;;;5.65;1.60;;;10.70;99.90;;;;;;5089309;27;20472;-78
2023/12/28 03:49:18;;;;;;;5.82;1.00;;;10.70;99.90;;;;;;5116704;27;20043;-78
2023/12/28 03:51:44;;;;;;;7.63;1.50;;;10.70;99.90;;;;;;5091000;27;20162;-79
2023/12/28 03:54:10;;;;;;;8.93;2.03;;;10.70;99.90;;;;;;5073044;27;20145;-79
2023/12/28 03:56:39;;;;;;;4.32;1.75;;;10.70;99.90;;;;;;5122116;27;20035;-79
2023/12/28 03:59:05;;;;;;;5.90;1.60;;;10.70;99.90;;;;;;5097428;27;20059;-79
2023/12/28 04:01:31;;;;;;;1.80;1.33;;;10.70;99.90;;;;;;5107725;27;20043;-79
2023/12/28 04:03:56;;;;;;;7.40;2.00;;;10.70;99.90;;;;;;5074731;27;20302;-79
2023/12/28 04:06:22;;;;;;;7.03;2.22;;;10.60;99.90;;;;;;5103892;27;20027;-80
2023/12/28 04:08:47;;;;;;;5.65;1.73;;;10.60;99.90;;;;;;5073421;27;20445;-80
2023/12/28 04:11:13;;;;;;;7.03;2.05;;;10.60;99.90;;;;;;5077980;28;20070;-79
2023/12/28 04:13:39;;;;;;;8.80;1.77;;;10.50;99.90;;;;;;5106083;27;20031;-79
2023/12/28 04:16:05;;;;;;;7.70;1.85;;;10.60;99.90;;;;;;5088154;27;20036;-80
2023/12/28 04:18:31;;;;;;;7.15;1.83;;;10.60;99.90;;;;;;5108544;27;20039;-80
2023/12/28 04:20:57;;;;;;;7.28;2.05;;;10.60;99.90;;;;;;5124139;27;20035;-80
2023/12/28 04:23:22;;;;;;;8.45;2.28;;;10.60;99.90;;;;;;5106530;27;20408;-80
2023/12/28 04:25:48;;;;;;;9.38;2.15;;;10.60;99.90;;;;;;5092208;27;20365;-80
2023/12/28 04:28:14;;;;;;;8.25;2.08;;;10.70;99.90;;;;;;5109904;27;20046;-79
2023/12/28 04:30:39;;;;;;;6.88;1.83;;;10.80;99.90;;;;;;5094587;27;20055;-79
2023/12/28 04:33:05;;;;;;;10.65;2.70;;;10.80;99.90;;;;;;5124428;27;20056;-80
2023/12/28 04:35:31;;;;;;;9.13;2.15;;;10.80;99.90;;;;;;5095094;27;20067;-79
2023/12/28 04:37:56;;;;;;;5.80;1.40;;;10.80;99.90;;;;;;5130245;27;20388;-81
2023/12/28 04:40:22;;;;;;;10.20;2.55;;;10.70;99.90;;;;;;5107657;27;20044;-80
2023/12/28 04:42:47;;;;;;;11.50;2.17;;;10.80;99.90;;;;;;5138815;27;20065;-79
2023/12/28 04:45:13;;;;;;;5.47;1.63;;;10.80;99.90;;;;;;5076423;27;20043;-79
2023/12/28 04:47:39;;;;;;;7.45;2.00;;;10.90;99.90;;;;;;5098580;27;20053;-80
2023/12/28 04:50:06;;;;;;;8.82;2.47;;;10.80;99.90;;;;;;5090203;27;20042;-79
2023/12/28 04:52:32;;;;;;;9.38;2.17;;;10.80;99.90;;;;;;5130520;27;20059;-79
2023/12/28 04:54:57;;;;;;;9.55;2.38;;;10.80;99.90;;;;;;5105940;27;20042;-78
2023/12/28 04:57:27;;;;;;;12.57;1.63;;;10.80;99.90;;;;;;5122197;27;20043;-79
2023/12/28 04:59:54;;;;;;;7.30;1.98;;;10.80;99.90;;;;;;5104563;27;20066;-79
2023/12/28 05:02:19;;;;;;;9.48;2.60;;;10.90;99.90;;;;;;5083098;27;20068;-79
2023/12/28 05:04:45;;;;;;;4.68;1.88;;;10.90;99.90;;;;;;5096196;28;20512;-79
2023/12/28 05:07:10;;;;;;;8.30;2.35;;;10.90;99.90;;;;;;5122731;27;20128;-79
2023/12/28 05:09:36;;;;;;;9.00;1.80;;;10.90;99.90;;;;;;5122545;27;20080;-78
2023/12/28 05:12:02;;;;;;;10.18;2.47;;;10.90;99.90;;;;;;5106523;27;20541;-80
2023/12/28 05:14:28;;;;;;;6.93;1.50;;;11.00;99.90;;;;;;5122446;27;20036;-79
2023/12/28 05:16:53;;;;;;;11.48;1.65;;;10.90;99.90;;;;;;5078888;27;20124;-79
2023/12/28 05:19:19;;;;;;;6.03;2.20;;;11.00;99.90;;;;;;5112138;27;20136;-79
2023/12/28 05:21:46;;;;;;;13.02;2.10;;;10.90;99.90;;;;;;5125062;27;20050;-79
2023/12/28 05:24:11;;;;;;;6.50;1.95;;;11.00;99.90;;;;;;5112386;27;20058;-79
2023/12/28 05:26:37;;;;;;;7.22;2.10;;;11.00;99.90;;;;;;5119815;27;20142;-79
2023/12/28 05:29:03;;;;;;;6.43;1.50;;;10.90;99.90;;;;;;5113020;27;20031;-78
2023/12/28 05:31:28;;;;;;;7.63;1.80;;;10.90;99.90;;;;;;5104476;27;20039;-79
2023/12/28 05:33:54;;;;;;;8.63;2.20;;;10.90;99.90;;;;;;5096293;27;20125;-79
2023/12/28 05:36:20;;;;;;;6.20;1.73;;;10.90;99.90;;;;;;5101359;27;20035;-79
2023/12/28 05:38:45;;;;;;;9.63;2.30;;;10.90;99.90;;;;;;5138735;27;20027;-79
2023/12/28 05:41:11;;;;;;;7.82;1.27;;;11.00;99.90;;;;;;5113478;27;20039;-78
2023/12/28 05:43:37;;;;;;;10.85;2.20;;;11.00;99.90;;;;;;5143844;27;20047;-79
2023/12/28 05:46:04;;;;;;;11.13;2.38;;;11.00;99.90;;;;;;5113229;27;20035;-79
2023/12/28 05:48:29;;;;;;;10.43;2.28;;;11.00;99.90;;;;;;5114301;27;20054;-79
2023/12/28 05:50:58;;;;;;;10.30;2.67;;;10.90;99.90;;;;;;5127006;27;20504;-79
2023/12/28 05:53:24;;;;;;;9.77;2.10;;;11.00;99.90;;;;;;5132227;27;20064;-78
2023/12/28 05:55:49;;;;;;;10.93;2.30;;;11.00;99.90;;;;;;5110482;27;20040;-79
2023/12/28 05:58:15;;;;;;;7.97;1.75;;;11.00;99.90;;;;;;5120182;27;20098;-79
2023/12/28 06:00:41;;;;;;;8.98;2.42;;;11.00;99.90;;;;;;5132978;27;20126;-78
2023/12/28 06:03:07;;;;;;;9.38;1.73;;;11.00;99.90;;;;;;5111082;27;20042;-78
2023/12/28 06:05:32;;;;;;;4.45;1.75;;;11.00;99.90;;;;;;5086696;27;20412;-79
2023/12/28 06:07:58;;;;;;;5.53;1.65;;;11.10;99.90;;;;;;5087337;27;20043;-78
2023/12/28 06:10:26;;;;;;;4.72;1.20;;;11.00;99.90;;;;;;5094353;27;20047;-79
2023/12/28 06:12:52;;;;;;;11.88;2.15;;;11.00;99.90;;;;;;5129338;27;20044;-79
2023/12/28 06:15:17;;;;;;;8.57;1.83;;;11.00;99.90;;;;;;5101879;27;21290;-78
2023/12/28 06:17:43;;;;;;;9.43;2.47;;;11.00;99.90;;;;;;5113536;27;20088;-78
2023/12/28 06:20:10;;;;;;;6.20;1.83;;;11.00;99.90;;;;;;5115648;27;20413;-79
2023/12/28 06:22:39;;;;;;;6.85;1.40;;;11.10;99.90;;;;;;5100286;27;20068;-78
2023/12/28 06:25:06;;;;;;;6.68;1.73;;;11.10;99.90;;;;;;5127987;27;20035;-79
2023/12/28 06:27:31;;;;;;;11.73;2.15;;;11.10;99.90;;;;;;5116384;27;20063;-79
2023/12/28 06:29:57;;;;;;;12.15;2.63;;;11.10;99.90;;;;;;5112889;27;20468;-79
2023/12/28 06:32:22;;;;;;;9.93;2.40;;;11.00;99.90;;;;;;5108392;27;20049;-80
2023/12/28 06:34:48;;;;;;;6.55;1.38;;;11.10;99.90;;;;;;5111630;27;20494;-78
2023/12/28 06:37:14;;;;;;;13.38;2.42;;;11.10;99.90;;;;;;5103366;27;20043;-78
2023/12/28 06:39:40;;;;;;;10.38;2.45;;;11.10;99.90;;;;;;5094496;27;20074;-79
2023/12/28 06:42:06;;;;;;;7.70;1.73;;;11.10;99.90;;;;;;5086766;27;20400;-78
2023/12/28 06:44:32;;;;;;;10.00;1.92;;;11.10;99.90;;;;;;5086159;27;20055;-79
2023/12/28 06:46:58;;;;;;;9.82;2.25;;;11.00;99.90;;;;;;5077835;27;20396;-79
2023/12/28 06:49:24;;;;;;;9.50;2.28;;;11.00;99.90;;;;;;5110106;27;20067;-78
2023/12/28 06:51:50;;;;;;;11.75;3.08;;;11.10;99.90;;;;;;5121623;27;20149;-79
2023/12/28 06:54:16;;;;;;;8.82;2.00;;;11.10;99.90;;;;;;5113723;28;20043;-79
2023/12/28 06:56:41;;;;;;;4.07;1.02;;;11.00;99.90;;;;;;5113515;27;20437;-78
2023/12/28 06:59:11;;;;;;;9.63;2.13;;;11.00;99.90;;;;;;5112413;27;20059;-78
2023/12/28 07:01:40;;;;;;;6.75;1.73;;;11.10;99.90;;;;;;5085139;27;20404;-79
2023/12/28 07:04:05;;;;;;;8.40;1.75;;;11.10;99.90;;;;;;5089899;27;20122;-78
2023/12/28 07:06:31;;;;;;;9.85;1.90;;;11.10;99.90;;;;;;5100813;27;20172;-78
2023/12/28 07:08:57;;;;;;;6.40;1.73;;;11.10;99.90;;;;;;5091452;27;20081;-77
2023/12/28 07:11:22;;;;;;;12.88;1.95;;;11.10;99.90;;;;;;5108745;27;20047;-78
2023/12/28 07:13:48;;;;;;;8.52;2.30;;;11.00;99.90;;;;;;5132085;27;20119;-78
2023/12/28 07:16:15;;;;;;;9.10;2.35;;;11.00;99.90;;;;;;5123722;27;20119;-78
2023/12/28 07:18:41;;;;;;;9.07;2.45;;;11.10;99.90;;;;;;5108286;27;20031;-78
2023/12/28 07:21:10;;;;;;;10.40;2.22;;;11.10;99.90;;;;;;5079441;28;20538;-79
2023/12/28 07:23:36;;;;;;;10.88;2.30;;;11.10;99.90;;;;;;5135184;27;20565;-79
2023/12/28 07:26:02;;;;;;;10.88;2.53;;;11.10;99.90;;;;;;5073245;27;20372;-79
2023/12/28 07:28:28;;;;;;;9.35;2.88;;;11.10;99.90;;;;;;5090942;27;20040;-78
2023/12/28 07:30:54;;;;;;;7.80;1.90;;;11.10;99.90;;;;;;5079311;27;20397;-79
2023/12/28 07:33:20;;;;;;;8.75;2.30;;;11.20;99.90;;;;;;5100244;27;20042;-78
2023/12/28 07:35:46;;;;;;;7.43;1.52;;;11.20;99.90;;;;;;5125118;27;20039;-78
2023/12/28 07:38:12;;;;;;;11.73;2.72;;;11.20;99.90;;;;;;5129454;27;20035;-78
2023/12/28 07:40:37;;;;;;;5.10;1.42;;;11.20;99.90;;;;;;5130274;27;20392;-77
2023/12/28 07:43:03;;;;;;;11.63;2.00;;;11.10;99.90;;;;;;5145777;27;20070;-79
2023/12/28 07:45:29;;;;;;;11.38;2.80;;;11.10;99.90;;;;;;5130917;27;20460;-77
2023/12/28 07:47:55;;;;;;;10.25;2.28;;;11.10;99.90;;;;;;5136899;27;20039;-78
2023/12/28 07:50:20;;;;;;;10.40;2.38;;;11.10;99.90;;;;;;5117341;27;20047;-78
2023/12/28 07:52:47;;;;;;;13.77;2.60;;;10.90;99.90;;;;;;5124034;27;20075;-80
2023/12/28 07:55:13;;;;;;;15.05;2.85;;;11.10;99.90;;;;;;5096518;28;20522;-78
2023/12/28 07:57:38;;;;;;;14.10;2.97;;;11.10;99.90;;;;;;5111345;28;20032;-77
2023/12/28 08:00:05;;;;;;;12.98;2.20;;;11.00;99.90;;;;;;5129772;27;20066;-78
2023/12/28 08:02:31;;;;;;;13.02;3.00;;;11.00;99.90;;;;;;5110787;27;20510;-77
2023/12/28 08:04:56;;;;;;;8.25;1.73;;;11.00;99.90;;;;;;5094911;28;20122;-77
2023/12/28 08:07:22;;;;;;;11.40;2.10;;;11.10;99.90;;;;;;5096423;28;20054;-78
2023/12/28 08:09:48;;;;;;;8.95;2.00;;;11.10;99.90;;;;;;5128170;27;20070;-79
2023/12/28 08:12:13;;;;;;;7.32;1.80;;;11.10;99.90;;;;;;5129423;27;20403;-78
2023/12/28 08:14:39;;;;;;;13.10;3.20;;;11.10;99.90;;;;;;5143239;27;20046;-78
2023/12/28 08:17:05;;;;;;;14.15;2.22;;;11.10;99.90;;;;;;5113228;28;20118;-77
2023/12/28 08:19:30;;;;;;;9.82;2.25;;;11.00;99.90;;;;;;5112458;27;20118;-79
2023/12/28 08:21:56;;;;;;;13.15;2.97;;;11.10;99.90;;;;;;5094670;27;20035;-78
2023/12/28 08:24:21;;;;;;;14.65;3.17;;;11.20;99.90;;;;;;5093615;28;20043;-76
2023/12/28 08:26:47;;;;;;;12.80;2.83;;;11.10;99.90;;;;;;5111121;28;20404;-80
2023/12/28 08:29:13;;;;;;;13.07;2.38;;;11.20;99.90;;;;;;5112408;27;20488;-86
2023/12/28 08:31:39;;;;;;;13.50;2.78;;;11.20;99.90;;;;;;5130126;27;20134;-78
2023/12/28 08:34:04;;;;;;;16.30;3.30;;;11.20;99.90;;;;;;5105681;27;20173;-78
2023/12/28 08:36:30;;;;;;;12.15;2.35;;;11.20;99.90;;;;;;5108667;27;20035;-78
2023/12/28 08:38:55;;;;;;;16.58;2.65;;;11.10;99.90;;;;;;5084947;28;20036;-79
2023/12/28 08:41:23;;;;;;;10.93;3.33;;;11.10;99.90;;;;;;5109563;27;20051;-78
2023/12/28 08:43:50;;;;;;;12.63;2.17;;;11.20;99.90;;;;;;5119550;27;20051;-78
2023/12/28 08:46:16;;;;;;;11.57;2.40;;;11.20;99.90;;;;;;5087795;28;20070;-78
2023/12/28 08:48:42;;;;;;;11.20;2.90;;;11.20;99.90;;;;;;5111840;28;20447;-78
2023/12/28 08:51:09;;;;;;;15.45;3.85;;;11.20;99.90;;;;;;5079062;28;20135;-78
2023/12/28 08:53:35;;;;;;;15.05;2.78;;;11.20;99.90;;;;;;5090830;27;20040;-78
2023/12/28 08:56:01;;;;;;;14.10;2.45;;;11.20;99.90;;;;;;5078818;27;20081;-78
2023/12/28 08:58:27;;;;;;;12.77;3.10;;;11.20;99.90;;;;;;5077537;27;20044;-78
2023/12/28 09:00:53;;;;;;;15.35;2.60;;;11.20;99.90;;;;;;5086258;27;20048;-78
2023/12/28 09:03:18;;;;;;;11.77;3.35;;;11.20;99.90;;;;;;5134585;27;20392;-78
2023/12/28 09:05:44;;;;;;;19.17;3.75;;;11.20;99.90;;;;;;5092101;28;20043;-78
2023/12/28 09:08:10;;;;;;;14.30;2.85;;;11.20;99.90;;;;;;5090534;28;20542;-78
2023/12/28 09:10:35;;;;;;;16.60;4.05;;;11.20;99.90;;;;;;5079938;28;20480;-79
2023/12/28 09:13:04;;;;;;;13.30;3.55;;;11.20;99.90;;;;;;5080049;28;20043;-79
2023/12/28 09:15:30;;;;;;;14.85;3.08;;;11.30;99.90;;;;;;5099510;27;20043;-79
2023/12/28 09:17:56;;;;;;;17.67;3.33;;;11.20;99.90;;;;;;5090205;28;20046;-78
2023/12/28 09:20:22;;;;;;;11.55;3.08;;;11.30;99.90;;;;;;5114407;27;20055;-78
2023/12/28 09:22:53;;;;;;;13.43;2.83;;;11.30;99.90;;;;;;5077548;28;20399;-78
2023/12/28 09:25:19;;;;;;;13.38;3.28;;;11.30;99.90;;;;;;5120568;27;20043;-79
2023/12/28 09:27:44;;;;;;;16.25;2.45;;;11.20;99.90;;;;;;5089138;28;20137;-79
2023/12/28 09:30:10;;;;;;;11.20;2.15;;;11.20;99.90;;;;;;5080000;28;21763;-77
2023/12/28 09:32:36;;;;;;;19.33;3.67;;;11.30;99.90;;;;;;5114686;27;20132;-79
2023/12/28 09:35:01;;;;;;;15.02;3.15;;;11.30;99.90;;;;;;5098222;27;20036;-79
2023/12/28 09:37:27;;;;;;;18.40;3.17;;;11.20;99.90;;;;;;5103152;27;20039;-79
2023/12/28 09:39:53;;;;;;;12.13;1.98;;;11.30;99.90;;;;;;5091198;28;20614;-77
2023/12/28 09:42:34;;;;;;;13.88;2.80;;;11.30;99.90;;;;;;5081676;28;20039;-78
2023/12/28 09:44:59;;;;;;;16.77;2.28;;;11.20;99.90;;;;;;5084011;28;20043;-78
2023/12/28 09:47:25;;;;;;;13.35;2.53;;;11.20;99.90;;;;;;5079721;28;20046;-79
2023/12/28 09:49:51;;;;;;;14.20;2.53;;;11.30;99.90;;;;;;5140262;27;20059;-78
2023/12/28 09:52:16;;;;;;;13.80;3.10;;;11.30;99.90;;;;;;5084497;28;20032;-79
2023/12/28 09:54:42;;;;;;;11.05;2.40;;;11.30;99.90;;;;;;5096454;28;20127;-78
2023/12/28 09:57:09;;;;;;;9.40;2.30;;;11.30;99.90;;;;;;5104794;28;20044;-78
2023/12/28 09:59:35;;;;;;;12.23;3.15;;;11.40;99.90;;;;;;5122528;27;20453;-78
2023/12/28 10:02:01;;;;;;;12.10;2.83;;;11.30;99.90;;;;;;5146576;27;20495;-78
2023/12/28 10:04:29;;;;;;;12.30;2.88;;;11.40;99.90;;;;;;5086544;28;20039;-78
2023/12/28 10:06:54;;;;;;;14.77;2.20;;;11.40;99.90;;;;;;5143759;27;20031;-77
2023/12/28 10:09:21;;;;;;;15.68;2.58;;;11.40;99.90;;;;;;5107972;27;20515;-77
2023/12/28 10:11:47;;;;;;;13.48;3.13;;;11.30;99.90;;;;;;5112288;27;20393;-77
2023/12/28 10:14:13;;;;;;;8.35;2.30;;;11.40;99.90;;;;;;5094885;28;20043;-79
2023/12/28 10:16:42;;;;;;;12.82;2.22;;;11.40;99.90;;;;;;5139825;27;20388;-78
2023/12/28 10:19:08;;;;;;;16.05;2.38;;;11.40;99.90;;;;;;5096280;28;20035;-78
2023/12/28 10:21:34;;;;;;;17.95;3.58;;;11.40;99.90;;;;;;5123739;27;20476;-80
2023/12/28 10:24:00;;;;;;;14.60;3.08;;;11.40;99.90;;;;;;5122005;27;20054;-78
2023/12/28 10:26:27;;;;;;;14.07;3.80;;;11.40;99.90;;;;;;5095810;28;20039;-79
2023/12/28 10:29:03;;;;;;;17.70;2.95;;;11.40;99.90;;;;;;5097078;28;20040;-78
2023/12/28 10:31:29;;;;;;;15.43;2.95;;;11.40;99.90;;;;;;5126824;27;20048;-77
2023/12/28 10:33:59;;;;;;;9.07;1.85;;;11.40;99.90;;;;;;5096906;28;20484;-78
2023/12/28 10:36:27;;;;;;;13.93;3.03;;;11.50;99.90;;;;;;5140524;27;20065;-78
2023/12/28 10:38:54;;;;;;;12.18;2.83;;;11.60;99.90;;;;;;5080079;28;20036;-79
2023/12/28 10:41:21;;;;;;;17.60;3.47;;;11.60;99.90;;;;;;5116278;27;20035;-78
2023/12/28 10:43:56;;;;;;;9.80;2.28;;;11.60;99.90;;;;;;5097816;28;20092;-79
2023/12/28 10:46:32;;;;;;;15.10;3.75;;;11.60;99.90;;;;;;5146917;27;20066;-79
2023/12/28 10:49:20;;;;;;;7.68;2.03;;;11.60;99.90;;;;;;5113377;27;20115;-78
2023/12/28 10:51:49;;;;;;;13.73;3.15;;;11.60;99.90;;;;;;5095597;28;20073;-78
2023/12/28 10:54:39;;;;;;;13.80;2.97;;;11.60;99.90;;;;;;5139965;27;20492;-79
2023/12/28 10:57:16;;;;;;;15.70;2.45;;;11.60;99.90;;;;;;5135892;27;20071;-78
2023/12/28 10:59:56;;;;;;;11.88;2.72;;;11.60;99.90;;;;;;5130032;27;20052;-78
2023/12/28 11:02:28;;;;;;;15.25;2.75;;;11.50;99.90;;;;;;5113803;28;20039;-79
2023/12/28 11:04:55;;;;;;;9.38;2.30;;;11.50;99.90;;;;;;5111540;28;20395;-78
2023/12/28 11:07:22;;;;;;;16.38;3.25;;;11.50;99.90;;;;;;5112882;28;20044;-79
2023/12/28 11:09:48;;;;;;;11.32;2.13;;;11.50;99.90;;;;;;5109981;28;20085;-79
2023/12/28 11:12:18;;;;;;;15.45;2.97;;;11.60;99.90;;;;;;5096128;27;20040;-78
2023/12/28 11:14:45;;;;;;;9.98;2.38;;;11.50;99.90;;;;;;5104385;28;20039;-78
2023/12/28 11:17:11;;;;;;;10.48;2.20;;;11.50;99.90;;;;;;5096234;28;20384;-78
2023/12/28 11:19:38;;;;;;;9.45;2.10;;;11.50;99.90;;;;;;5113238;27;20038;-78
2023/12/28 11:22:04;;;;;;;15.10;2.88;;;11.50;99.90;;;;;;5112965;28;20032;-78
2023/12/28 11:24:31;;;;;;;12.13;2.78;;;11.40;99.90;;;;;;5108919;28;20043;-78
2023/12/28 11:26:57;;;;;;;10.80;2.67;;;11.50;99.90;;;;;;5106506;27;20090;-78
2023/12/28 11:29:24;;;;;;;11.38;2.00;;;11.50;99.90;;;;;;5119435;27;20036;-77
2023/12/28 11:31:54;;;;;;;16.95;3.20;;;11.50;99.90;;;;;;5109173;28;20049;-78
2023/12/28 11:34:25;;;;;;;19.90;3.38;;;11.30;99.90;;;;;;5119030;27;20043;-78
2023/12/28 11:36:54;;;;;;;13.80;2.90;;;11.30;99.90;;;;;;5093535;28;20032;-78
2023/12/28 11:39:29;;;;;;;15.18;3.92;;;11.40;99.90;;;;;;5093650;28;20540;-79
2023/12/28 11:42:05;;;;;;;9.82;2.28;;;11.40;99.90;;;;;;5102207;28;20034;-78
2023/12/28 11:44:38;;;;;;;17.90;3.10;;;11.40;99.90;;;;;;5126998;27;20126;-79
2023/12/28 11:47:14;;;;;;;12.68;2.45;;;11.40;99.90;;;;;;5092933;28;20039;-79
2023/12/28 11:49:40;;;;;;;14.48;3.15;;;11.50;99.90;;;;;;5112430;28;20047;-79
2023/12/28 11:52:07;;;;;;;17.88;3.85;;;11.50;99.90;;;;;;5109262;28;20392;-78
2023/12/28 11:54:33;;;;;;;10.75;2.85;;;11.50;99.90;;;;;;5108875;28;20114;-78
2023/12/28 11:56:58;;;;;;;7.28;2.05;;;11.60;99.90;;;;;;5111989;28;20567;-78
2023/12/28 11:59:24;;;;;;;17.27;3.28;;;11.60;99.90;;;;;;5111480;28;20435;-78
2023/12/28 12:01:53;;;;;;;9.13;1.77;;;11.50;99.90;;;;;;5092034;28;20031;-77
2023/12/28 12:04:20;;;;;;;14.90;2.20;;;11.50;99.90;;;;;;5091932;28;20119;-77
2023/12/28 12:06:46;;;;;;;12.73;2.80;;;11.50;99.90;;;;;;5110527;28;20035;-78
2023/12/28 12:09:13;;;;;;;9.57;1.95;;;11.50;99.90;;;;;;5144373;27;20076;-78
2023/12/28 12:11:39;;;;;;;12.48;2.63;;;11.50;99.90;;;;;;5144105;27;20088;-78
2023/12/28 12:14:13;;;;;;;12.18;2.95;;;11.50;99.90;;;;;;5106224;28;20434;-77
2023/12/28 12:16:39;;;;;;;12.98;1.83;;;11.50;99.90;;;;;;5109903;28;20040;-78
2023/12/28 12:19:06;;;;;;;11.80;1.95;;;11.40;99.90;;;;;;5108740;28;20430;-78
2023/12/28 12:21:35;;;;;;;12.70;2.70;;;11.30;99.90;;;;;;5125979;27;20035;-77
2023/12/28 12:24:01;;;;;;;16.55;1.98;;;11.50;99.90;;;;;;5092647;28;20442;-78
2023/12/28 12:26:31;;;;;;;13.48;2.42;;;11.40;99.90;;;;;;5128904;27;20126;-79
2023/12/28 12:28:57;;;;;;;14.75;2.88;;;11.40;99.90;;;;;;5108858;28;20077;-78
2023/12/28 12:31:24;;;;;;;16.45;3.47;;;11.40;99.90;;;;;;5110424;28;20036;-77
2023/12/28 12:33:50;;;;;;;13.50;3.15;;;11.40;99.90;;;;;;5110953;28;20876;-78
2023/12/28 12:36:17;;;;;;;16.83;3.83;;;11.40;99.90;;;;;;5091708;28;20112;-78
2023/12/28 12:38:42;;;;;;;13.95;2.58;;;11.40;99.90;;;;;;5111183;28;20483;-78
2023/12/28 12:41:11;;;;;;;14.45;3.53;;;11.40;99.90;;;;;;5092804;28;20046;-78
2023/12/28 12:43:37;;;;;;;16.88;2.15;;;11.50;99.90;;;;;;5108518;28;20047;-78